createdAt,value
2022-11-08T00:01:09.510Z,62.96
2022-11-08T00:06:29.921Z,61.89
2022-11-08T00:11:50.549Z,62.03
2022-11-08T00:16:52.448Z,62.18
2022-11-08T00:21:54.631Z,62.24
2022-11-08T00:26:56.558Z,62.06
2022-11-08T00:31:58.585Z,62.49
2022-11-08T00:37:01.060Z,61.42
2022-11-08T00:42:03.143Z,60.99
2022-11-08T00:47:05.684Z,60.40
2022-11-08T00:52:07.578Z,60.05
2022-11-08T00:57:09.413Z,59.65
2022-11-08T01:02:11.412Z,59.70
2022-11-08T01:07:13.261Z,60.78
2022-11-08T01:12:17.576Z,59.84
2022-11-08T01:17:19.500Z,58.83
2022-11-08T01:22:21.535Z,58.92
2022-11-08T01:27:23.372Z,58.33
2022-11-08T01:32:25.269Z,58.03
2022-11-08T01:37:27.213Z,57.84
2022-11-08T01:42:33.306Z,57.37
2022-11-08T01:47:38.523Z,57.78
2022-11-08T01:52:47.564Z,58.51
2022-11-08T01:58:01.408Z,57.46
2022-11-08T02:03:04.529Z,57.49
2022-11-08T02:08:22.167Z,57.82
2022-11-08T02:13:27.178Z,57.57
2022-11-08T02:18:31.287Z,57.75
2022-11-08T02:23:45.661Z,58.08
2022-11-08T02:28:48.679Z,58.12
2022-11-08T02:33:50.862Z,58.74
2022-11-08T02:38:57.985Z,58.69
2022-11-08T02:43:59.947Z,58.43
2022-11-08T02:49:01.789Z,58.92
2022-11-08T02:54:03.751Z,58.03
2022-11-08T02:59:06.228Z,58.64
2022-11-08T03:04:08.487Z,58.66
2022-11-08T03:09:11.117Z,57.19
2022-11-08T03:14:13.195Z,57.05
2022-11-08T03:19:15.393Z,56.65
2022-11-08T03:24:17.550Z,56.58
2022-11-08T03:29:19.509Z,57.08
2022-11-08T03:34:21.450Z,57.43
2022-11-08T03:39:23.302Z,57.36
2022-11-08T03:44:25.222Z,57.16
2022-11-08T03:49:27.624Z,57.29
2022-11-08T03:54:29.528Z,57.61
2022-11-08T03:59:31.381Z,57.27
2022-11-08T04:04:33.397Z,57.41
2022-11-08T04:09:35.292Z,57.74
2022-11-08T04:14:55.677Z,57.52
2022-11-08T04:20:15.951Z,57.19
2022-11-08T04:25:18.092Z,58.03
2022-11-08T04:30:20.194Z,57.77
2022-11-08T04:35:22.088Z,58.41
2022-11-08T04:40:23.964Z,58.05
2022-11-08T04:45:25.968Z,58.24
2022-11-08T04:50:28.256Z,59.18
2022-11-08T04:55:30.307Z,59.70
2022-11-08T05:00:32.168Z,61.15
2022-11-08T05:05:34.075Z,63.18
2022-11-08T05:10:35.931Z,63.75
2022-11-08T05:15:37.949Z,64.75
2022-11-08T05:20:58.504Z,65.61
2022-11-08T05:26:00.635Z,65.08
2022-11-08T05:31:03.407Z,65.01
2022-11-08T05:36:07.924Z,64.36
2022-11-08T05:41:21.095Z,64.82
2022-11-08T05:46:23.678Z,66.88
2022-11-08T05:51:25.756Z,66.71
2022-11-08T05:56:27.763Z,68.11
2022-11-08T06:01:29.727Z,67.49
2022-11-08T06:06:31.683Z,68.13
2022-11-08T06:11:40.049Z,67.61
2022-11-08T06:16:48.684Z,67.98
2022-11-08T06:21:50.592Z,67.34
2022-11-08T06:26:52.748Z,66.35
2022-11-08T06:31:54.699Z,65.91
2022-11-08T06:36:58.788Z,66.36
2022-11-08T06:42:01.192Z,66.04
2022-11-08T06:47:03.333Z,65.89
2022-11-08T06:52:05.305Z,66.07
2022-11-08T06:57:07.460Z,66.26
2022-11-08T07:02:11.114Z,64.78
2022-11-08T07:07:13.149Z,62.24
2022-11-08T07:12:14.995Z,60.81
2022-11-08T07:17:17.102Z,59.48
2022-11-08T07:22:19.021Z,57.96
2022-11-08T07:27:21.064Z,56.95
2022-11-08T07:32:23.083Z,56.34
2022-11-08T07:37:24.976Z,57.84
2022-11-08T07:42:34.298Z,59.01
2022-11-08T07:47:57.177Z,59.93
2022-11-08T07:52:59.321Z,59.32
2022-11-08T07:58:02.046Z,59.83
2022-11-08T08:03:06.394Z,59.21
2022-11-08T08:08:08.953Z,58.65
2022-11-08T08:13:11.928Z,58.84
2022-11-08T08:18:13.914Z,58.24
2022-11-08T08:23:16.202Z,57.74
2022-11-08T08:28:19.011Z,58.31
2022-11-08T08:33:29.419Z,57.51
2022-11-08T08:38:33.369Z,57.30
2022-11-08T08:43:35.251Z,56.45
2022-11-08T08:48:38.872Z,56.00
2022-11-08T08:53:40.984Z,56.17
2022-11-08T08:58:43.367Z,55.63
2022-11-08T09:03:45.505Z,55.48
2022-11-08T09:08:47.584Z,54.65
2022-11-08T09:13:49.848Z,55.29
2022-11-08T09:18:51.817Z,54.67
2022-11-08T09:23:53.890Z,53.28
2022-11-08T09:28:56.070Z,52.25
2022-11-08T09:33:58.324Z,52.86
2022-11-08T09:39:00.256Z,51.37
2022-11-08T09:44:40.584Z,52.04
2022-11-08T09:49:49.159Z,50.21
2022-11-08T09:54:55.535Z,49.44
2022-11-08T10:00:05.309Z,48.60
2022-11-08T10:05:13.519Z,48.95
2022-11-08T10:10:47.292Z,48.08
2022-11-08T10:16:30.326Z,46.89
2022-11-08T10:21:57.131Z,45.03
2022-11-08T10:27:00.365Z,44.59
2022-11-08T10:32:25.245Z,44.90
2022-11-08T10:37:28.038Z,42.95
2022-11-08T10:42:57.838Z,42.78
2022-11-08T10:48:00.145Z,42.23
2022-11-08T10:53:04.035Z,42.19
2022-11-08T10:58:30.982Z,38.80
2022-11-08T11:03:39.553Z,38.47
2022-11-08T11:08:50.767Z,36.82
2022-11-08T11:14:16.617Z,36.44
2022-11-08T11:19:26.346Z,35.60
2022-11-08T11:24:28.579Z,33.47
2022-11-08T11:29:35.984Z,29.85
2022-11-08T11:34:48.776Z,31.18
2022-11-08T11:40:29.816Z,29.35
2022-11-08T11:45:46.897Z,28.55
2022-11-08T11:50:50.205Z,27.36
2022-11-08T11:56:10.753Z,25.94
2022-11-08T12:01:35.085Z,25.32
2022-11-08T12:06:49.639Z,22.40
2022-11-08T12:12:14.909Z,22.44
2022-11-08T12:17:50.502Z,21.53
2022-11-08T12:23:19.728Z,20.63
2022-11-08T12:28:32.739Z,20.41
2022-11-08T12:33:43.535Z,20.39
2022-11-08T12:39:23.622Z,19.63
2022-11-08T12:44:45.115Z,19.15
2022-11-08T12:50:02.108Z,16.90
2022-11-08T12:55:09.964Z,18.07
2022-11-08T13:00:18.569Z,18.20
2022-11-08T13:05:25.723Z,19.04
2022-11-08T13:10:48.221Z,17.66
2022-11-08T13:16:16.477Z,17.93
2022-11-08T13:21:38.950Z,18.43
2022-11-08T13:26:42.592Z,18.61
2022-11-08T13:32:07.643Z,19.28
2022-11-08T13:37:18.592Z,20.79
2022-11-08T13:42:20.591Z,21.38
2022-11-08T13:47:34.646Z,21.48
2022-11-08T13:52:47.069Z,22.31
2022-11-08T13:57:59.359Z,23.08
2022-11-08T14:03:01.339Z,23.95
2022-11-08T14:08:24.606Z,24.85
2022-11-08T14:13:37.571Z,25.97
2022-11-08T14:18:39.517Z,28.82
2022-11-08T14:23:42.472Z,28.75
2022-11-08T14:28:47.506Z,29.48
2022-11-08T14:33:49.460Z,30.56
2022-11-08T14:39:15.943Z,31.91
2022-11-08T14:44:19.011Z,33.15
2022-11-08T14:49:22.738Z,34.57
2022-11-08T14:54:29.626Z,34.80
2022-11-08T14:59:31.622Z,37.39
2022-11-08T15:04:39.904Z,39.39
2022-11-08T15:09:41.896Z,40.72
2022-11-08T15:14:52.288Z,42.36
2022-11-08T15:20:06.881Z,43.84
2022-11-08T15:25:14.734Z,45.96
2022-11-08T15:30:26.356Z,47.49
2022-11-08T15:35:38.658Z,49.66
2022-11-08T15:40:50.172Z,50.43
2022-11-08T15:45:55.119Z,52.33
2022-11-08T15:50:57.768Z,53.04
2022-11-08T15:56:04.695Z,53.72
2022-11-08T16:01:06.866Z,55.61
2022-11-08T16:06:12.156Z,56.26
2022-11-08T16:11:20.816Z,57.17
2022-11-08T16:16:22.770Z,57.72
2022-11-08T16:21:24.817Z,58.60
2022-11-08T16:26:26.754Z,59.73
2022-11-08T16:31:28.630Z,59.99
2022-11-08T16:36:30.794Z,61.02
2022-11-08T16:41:32.671Z,60.85
2022-11-08T16:46:35.032Z,61.58
2022-11-08T16:51:37.172Z,63.60
2022-11-08T16:56:39.052Z,64.56
2022-11-08T17:01:41.329Z,64.34
2022-11-08T17:06:43.575Z,65.01
2022-11-08T17:11:45.597Z,65.29
2022-11-08T17:16:48.558Z,66.01
2022-11-08T17:21:50.502Z,65.72
2022-11-08T17:26:53.680Z,66.08
2022-11-08T17:31:55.800Z,65.85
2022-11-08T17:36:57.730Z,66.61
2022-11-08T17:42:00.139Z,66.67
2022-11-08T17:47:02.245Z,66.88
2022-11-08T17:52:04.184Z,67.52
2022-11-08T17:57:06.347Z,68.79
2022-11-08T18:02:09.844Z,68.56
2022-11-08T18:07:12.100Z,69.30
2022-11-08T18:12:14.271Z,69.24
2022-11-08T18:17:16.133Z,69.91
2022-11-08T18:22:19.544Z,69.74
2022-11-08T18:27:21.484Z,69.42
2022-11-08T18:32:23.396Z,69.84
2022-11-08T18:37:25.767Z,70.49
2022-11-08T18:42:28.089Z,71.55
2022-11-08T18:47:32.249Z,71.75
2022-11-08T18:52:34.132Z,71.72
2022-11-08T18:57:37.556Z,71.96
2022-11-08T19:02:39.840Z,72.29
2022-11-08T19:07:41.765Z,71.84
2022-11-08T19:12:43.701Z,72.56
2022-11-08T19:17:49.893Z,72.66
2022-11-08T19:22:55.452Z,73.46
2022-11-08T19:27:58.793Z,73.95
2022-11-08T19:33:00.748Z,74.05
2022-11-08T19:38:02.692Z,74.12
2022-11-08T19:43:04.567Z,74.14
2022-11-08T19:48:07.150Z,74.83
2022-11-08T19:53:09.607Z,74.60
2022-11-08T19:58:11.520Z,74.41
2022-11-08T20:03:19.573Z,74.57
2022-11-08T20:08:22.102Z,75.04
2022-11-08T20:13:25.956Z,75.55
2022-11-08T20:18:29.644Z,74.85
2022-11-08T20:23:31.844Z,75.37
2022-11-08T20:28:34.435Z,75.01
2022-11-08T20:33:39.608Z,75.80
2022-11-08T20:38:42.005Z,75.97
2022-11-08T20:43:45.777Z,76.43
2022-11-08T20:48:51.905Z,76.26
2022-11-08T20:53:54.277Z,76.76
2022-11-08T20:58:56.875Z,77.37
2022-11-08T21:03:59.252Z,77.11
2022-11-08T21:09:09.877Z,77.53
2022-11-08T21:14:18.740Z,78.08
2022-11-08T21:19:21.568Z,77.91
2022-11-08T21:24:23.967Z,77.66
2022-11-08T21:29:26.016Z,77.92
2022-11-08T21:34:32.445Z,78.30
2022-11-08T21:39:34.657Z,78.43
2022-11-08T21:44:36.753Z,78.61
2022-11-08T21:49:38.858Z,79.19
2022-11-08T21:54:40.919Z,79.40
2022-11-08T21:59:42.939Z,79.39
2022-11-08T22:04:44.834Z,79.72
2022-11-08T22:09:47.164Z,79.76
2022-11-08T22:14:51.387Z,80.11
2022-11-08T22:19:54.009Z,80.71
2022-11-08T22:24:55.920Z,80.30
2022-11-08T22:29:57.870Z,79.99
2022-11-08T22:34:59.756Z,80.00
2022-11-08T22:40:01.795Z,80.27
2022-11-08T22:45:04.010Z,79.43
2022-11-08T22:50:06.402Z,78.91
2022-11-08T22:55:08.930Z,79.24
2022-11-08T23:00:12.648Z,78.79
2022-11-08T23:05:14.699Z,79.46
2022-11-08T23:10:16.689Z,79.86
2022-11-08T23:15:37.040Z,80.40
2022-11-08T23:20:57.379Z,80.63
2022-11-08T23:25:59.396Z,80.85
2022-11-08T23:31:22.915Z,80.54
2022-11-08T23:36:28.389Z,81.10
2022-11-08T23:41:48.759Z,80.72
2022-11-08T23:47:01.260Z,81.39
2022-11-08T23:52:03.716Z,80.52
2022-11-08T23:57:05.612Z,80.36
